PWSweather.com
Personal Weather Stations
Station Observations
ISTOCKPO4
Cheadle HulmeGB SK8 6NZ

Cheadle HulmeGB SK8 6NZ

Lat: 53.363783, Lon: -2.1948438

Elevation: 261

Station Type: Davis VP2 with Daytime FARS

http://www.cheadlehulmeweather.co.uk

Latest ConditionsUpdated 5:30:03 PM GMT Saturday, Oct 21, 2017
Currently Today's Max Today's Min Today's Average
Temperature 53.4°F11.9°C 56.1°F13.4°C 53.2°F11.8°C 54.6°F12.6°C
Dew Point 51.7°F10.9°C 52.9°F11.6°C 49.2°F9.6°C 51.0°F10.6°C
Winds 10.0 mph SW16.1 kmh SW 19.0 mph S30.6 kmh S - 12.8 mph 20.6 kmh
Wind Gusts 25.0 mph40.2 kmh 36.0 mph57.9 kmh - -
Humidity 94% 94% 81% 88%
Pressure 29.29 in991.9 mb 29.46 in997.6 mb 29.21 in989.2 mb -
Precipitation - 0.26 in6.6 mm - -
Hour Temp Dew Point Humidity Winds Wind Gusts Pressure Precip Precip Rate Daily Precip Total
05:30 PM 53.4°F11.9°C 51.7°F10.9°C 94% 10.0 mph SW16.1 kmh SW 25.0 mph40.2 kmh 29.29 in991.9 mb 0.10 in2.5 mm 0.00 in0.0 mm 0.26 in6.6 mm
05:15 PM 53.4°F11.9°C 51.7°F10.9°C 94% 11.0 mph S17.7 kmh S 21.0 mph33.8 kmh 29.27 in991.2 mb 0.12 in3.0 mm 0.04 in1.0 mm 0.26 in6.6 mm
05:00 PM 53.6°F12.0°C 51.9°F11.1°C 94% 12.0 mph S19.3 kmh S 24.0 mph38.6 kmh 29.26 in990.9 mb 0.11 in2.8 mm 0.00 in0.0 mm 0.23 in5.8 mm
04:45 PM 53.6°F12.0°C 51.9°F11.1°C 94% 12.0 mph S19.3 kmh S 22.0 mph35.4 kmh 29.25 in990.5 mb 0.11 in2.8 mm 0.04 in1.0 mm 0.20 in5.1 mm
04:30 PM 53.4°F11.9°C 51.4°F10.8°C 93% 13.0 mph S20.9 kmh S 23.0 mph37.0 kmh 29.25 in990.5 mb 0.10 in2.5 mm 0.00 in0.0 mm 0.16 in4.1 mm
04:15 PM 53.6°F12.0°C 51.6°F10.9°C 93% 14.0 mph S22.5 kmh S 28.0 mph45.1 kmh 29.24 in990.2 mb 0.10 in2.5 mm 0.00 in0.0 mm 0.14 in3.6 mm
04:00 PM 53.6°F12.0°C 51.3°F10.7°C 92% 13.0 mph S20.9 kmh S 32.0 mph51.5 kmh 29.23 in989.8 mb 0.10 in2.5 mm 0.04 in1.0 mm 0.12 in3.0 mm
03:45 PM 53.6°F12.0°C 51.3°F10.7°C 92% 15.0 mph S24.1 kmh S 26.0 mph41.8 kmh 29.22 in989.5 mb 0.07 in1.8 mm 0.12 in3.0 mm 0.09 in2.3 mm
03:30 PM 53.8°F12.1°C 50.9°F10.5°C 90% 14.0 mph S22.5 kmh S 27.0 mph43.5 kmh 29.22 in989.5 mb 0.04 in1.0 mm 0.08 in2.0 mm 0.06 in1.5 mm
03:15 PM 54.1°F12.3°C 51.0°F10.6°C 89% 16.0 mph S25.7 kmh S 29.0 mph46.7 kmh 29.22 in989.5 mb 0.02 in0.5 mm 0.08 in2.0 mm 0.04 in1.0 mm
03:00 PM 54.3°F12.4°C 50.8°F10.4°C 88% 18.0 mph S29.0 kmh S 32.0 mph51.5 kmh 29.21 in989.2 mb 0.00 in0.0 mm 0.00 in0.0 mm 0.02 in0.5 mm
02:45 PM 54.7°F12.6°C 50.6°F10.3°C 86% 17.0 mph S27.4 kmh S 30.0 mph48.3 kmh 29.21 in989.2 mb 0.00 in0.0 mm 0.00 in0.0 mm 0.02 in0.5 mm
02:30 PM 54.7°F12.6°C 50.6°F10.3°C 86% 17.0 mph S27.4 kmh S 34.0 mph54.7 kmh 29.21 in989.2 mb 0.00 in0.0 mm 0.00 in0.0 mm 0.02 in0.5 mm
02:15 PM 54.5°F12.5°C 51.3°F10.7°C 89% 19.0 mph S30.6 kmh S 34.0 mph54.7 kmh 29.21 in989.2 mb 0.00 in0.0 mm 0.00 in0.0 mm 0.02 in0.5 mm
02:00 PM 54.7°F12.6°C 50.6°F10.3°C 86% 17.0 mph SSE27.4 kmh SSE 29.0 mph46.7 kmh 29.21 in989.2 mb 0.00 in0.0 mm 0.00 in0.0 mm 0.02 in0.5 mm
01:45 PM 54.3°F12.4°C 50.2°F10.1°C 86% 18.0 mph SSE29.0 kmh SSE 31.0 mph49.9 kmh 29.22 in989.5 mb 0.00 in0.0 mm 0.00 in0.0 mm 0.02 in0.5 mm
01:30 PM 54.3°F12.4°C 50.5°F10.3°C 87% 17.0 mph SSE27.4 kmh SSE 33.0 mph53.1 kmh 29.23 in989.8 mb 0.00 in0.0 mm 0.00 in0.0 mm 0.02 in0.5 mm
01:15 PM 54.0°F12.2°C 50.5°F10.3°C 88% 17.0 mph SSE27.4 kmh SSE 31.0 mph49.9 kmh 29.24 in990.2 mb 0.00 in0.0 mm 0.00 in0.0 mm 0.02 in0.5 mm
01:00 PM 54.3°F12.4°C 50.2°F10.1°C 86% 13.0 mph SSE20.9 kmh SSE 25.0 mph40.2 kmh 29.25 in990.5 mb 0.00 in0.0 mm 0.00 in0.0 mm 0.02 in0.5 mm
12:45 PM 54.7°F12.6°C 50.6°F10.3°C 86% 15.0 mph SSE24.1 kmh SSE 28.0 mph45.1 kmh 29.25 in990.5 mb 0.00 in0.0 mm 0.00 in0.0 mm 0.02 in0.5 mm
12:30 PM 55.4°F13.0°C 50.6°F10.3°C 84% 15.0 mph SSE24.1 kmh SSE 27.0 mph43.5 kmh 29.26 in990.9 mb 0.00 in0.0 mm 0.00 in0.0 mm 0.02 in0.5 mm
12:15 PM 55.9°F13.3°C 50.2°F10.1°C 81% 17.0 mph SSE27.4 kmh SSE 28.0 mph45.1 kmh 29.26 in990.9 mb 0.00 in0.0 mm 0.00 in0.0 mm 0.02 in0.5 mm
12:00 PM 55.9°F13.3°C 50.5°F10.3°C 82% 16.0 mph SSE25.7 kmh SSE 36.0 mph57.9 kmh 29.27 in991.2 mb 0.00 in0.0 mm 0.00 in0.0 mm 0.02 in0.5 mm
11:45 AM 55.6°F13.1°C 50.5°F10.3°C 83% 15.0 mph SSE24.1 kmh SSE 30.0 mph48.3 kmh 29.28 in991.5 mb 0.00 in0.0 mm 0.00 in0.0 mm 0.02 in0.5 mm
11:30 AM 55.0°F12.8°C 50.0°F10.0°C 83% 15.0 mph SSE24.1 kmh SSE 25.0 mph40.2 kmh 29.29 in991.9 mb 0.00 in0.0 mm 0.00 in0.0 mm 0.02 in0.5 mm
11:15 AM 55.6°F13.1°C 50.2°F10.1°C 82% 17.0 mph S27.4 kmh S 30.0 mph48.3 kmh 29.30 in992.2 mb 0.00 in0.0 mm 0.00 in0.0 mm 0.02 in0.5 mm
11:00 AM 56.1°F13.4°C 50.7°F10.4°C 82% 14.0 mph SSE22.5 kmh SSE 28.0 mph45.1 kmh 29.29 in991.9 mb 0.00 in0.0 mm 0.00 in0.0 mm 0.02 in0.5 mm
10:45 AM 55.2°F12.9°C 50.8°F10.4°C 85% 14.0 mph SSE22.5 kmh SSE 26.0 mph41.8 kmh 29.30 in992.2 mb 0.00 in0.0 mm 0.00 in0.0 mm 0.02 in0.5 mm
10:30 AM 55.6°F13.1°C 50.5°F10.3°C 83% 15.0 mph SSE24.1 kmh SSE 29.0 mph46.7 kmh 29.31 in992.6 mb 0.00 in0.0 mm 0.00 in0.0 mm 0.02 in0.5 mm
10:15 AM 55.0°F12.8°C 50.3°F10.2°C 84% 15.0 mph SSE24.1 kmh SSE 28.0 mph45.1 kmh 29.30 in992.2 mb 0.00 in0.0 mm 0.00 in0.0 mm 0.02 in0.5 mm
10:00 AM 55.0°F12.8°C 50.6°F10.3°C 85% 12.0 mph SSE19.3 kmh SSE 22.0 mph35.4 kmh 29.31 in992.6 mb 0.00 in0.0 mm 0.00 in0.0 mm 0.02 in0.5 mm
09:45 AM 54.7°F12.6°C 50.3°F10.2°C 85% 15.0 mph SSE24.1 kmh SSE 26.0 mph41.8 kmh 29.31 in992.6 mb 0.00 in0.0 mm 0.00 in0.0 mm 0.02 in0.5 mm
09:30 AM 55.0°F12.8°C 50.0°F10.0°C 83% 15.0 mph SSE24.1 kmh SSE 26.0 mph41.8 kmh 29.32 in992.9 mb 0.00 in0.0 mm 0.00 in0.0 mm 0.02 in0.5 mm
09:15 AM 55.0°F12.8°C 50.0°F10.0°C 83% 16.0 mph SSE25.7 kmh SSE 34.0 mph54.7 kmh 29.31 in992.6 mb 0.00 in0.0 mm 0.00 in0.0 mm 0.02 in0.5 mm
09:00 AM 54.7°F12.6°C 49.6°F9.8°C 83% 16.0 mph SSE25.7 kmh SSE 28.0 mph45.1 kmh 29.32 in992.9 mb 0.00 in0.0 mm 0.00 in0.0 mm 0.02 in0.5 mm
08:45 AM 54.5°F12.5°C 49.8°F9.9°C 84% 14.0 mph SSE22.5 kmh SSE 25.0 mph40.2 kmh 29.33 in993.2 mb 0.00 in0.0 mm 0.00 in0.0 mm 0.02 in0.5 mm
08:30 AM 54.1°F12.3°C 49.4°F9.7°C 84% 14.0 mph SSE22.5 kmh SSE 29.0 mph46.7 kmh 29.33 in993.2 mb 0.00 in0.0 mm 0.00 in0.0 mm 0.02 in0.5 mm
08:15 AM 54.1°F12.3°C 49.7°F9.8°C 85% 13.0 mph SSE20.9 kmh SSE 33.0 mph53.1 kmh 29.34 in993.6 mb 0.00 in0.0 mm 0.00 in0.0 mm 0.02 in0.5 mm
08:00 AM 54.0°F12.2°C 49.6°F9.8°C 85% 12.0 mph SSE19.3 kmh SSE 25.0 mph40.2 kmh 29.34 in993.6 mb 0.00 in0.0 mm 0.00 in0.0 mm 0.02 in0.5 mm
07:45 AM 53.8°F12.1°C 49.4°F9.7°C 85% 15.0 mph SSE24.1 kmh SSE 26.0 mph41.8 kmh 29.34 in993.6 mb 0.00 in0.0 mm 0.00 in0.0 mm 0.02 in0.5 mm
07:30 AM 53.2°F11.8°C 49.2°F9.6°C 86% 11.0 mph SSE17.7 kmh SSE 21.0 mph33.8 kmh 29.34 in993.6 mb 0.00 in0.0 mm 0.00 in0.0 mm 0.02 in0.5 mm
07:15 AM 53.2°F11.8°C 49.2°F9.6°C 86% 11.0 mph SSE17.7 kmh SSE 21.0 mph33.8 kmh 29.35 in993.9 mb 0.00 in0.0 mm 0.00 in0.0 mm 0.02 in0.5 mm
07:00 AM 53.2°F11.8°C 49.2°F9.6°C 86% 11.0 mph SSE17.7 kmh SSE 23.0 mph37.0 kmh 29.35 in993.9 mb 0.00 in0.0 mm 0.00 in0.0 mm 0.02 in0.5 mm
06:45 AM 53.2°F11.8°C 49.2°F9.6°C 86% 12.0 mph SSE19.3 kmh SSE 20.0 mph32.2 kmh 29.35 in993.9 mb 0.00 in0.0 mm 0.00 in0.0 mm 0.02 in0.5 mm
06:30 AM 53.8°F12.1°C 49.4°F9.7°C 85% 12.0 mph SSE19.3 kmh SSE 21.0 mph33.8 kmh 29.35 in993.9 mb 0.00 in0.0 mm 0.00 in0.0 mm 0.02 in0.5 mm
06:15 AM 53.6°F12.0°C 49.5°F9.7°C 86% 12.0 mph SSE19.3 kmh SSE 19.0 mph30.6 kmh 29.36 in994.2 mb 0.00 in0.0 mm 0.00 in0.0 mm 0.02 in0.5 mm
06:00 AM 53.8°F12.1°C 49.7°F9.8°C 86% 9.0 mph SSE14.5 kmh SSE 17.0 mph27.4 kmh 29.36 in994.2 mb 0.00 in0.0 mm 0.00 in0.0 mm 0.02 in0.5 mm
05:45 AM 54.3°F12.4°C 50.2°F10.1°C 86% 10.0 mph SSE16.1 kmh SSE 19.0 mph30.6 kmh 29.37 in994.6 mb 0.00 in0.0 mm 0.00 in0.0 mm 0.02 in0.5 mm
05:30 AM 54.7°F12.6°C 51.2°F10.7°C 88% 9.0 mph SSE14.5 kmh SSE 18.0 mph29.0 kmh 29.38 in994.9 mb 0.00 in0.0 mm 0.00 in0.0 mm 0.02 in0.5 mm
05:15 AM 54.9°F12.7°C 51.4°F10.8°C 88% 12.0 mph SSE19.3 kmh SSE 20.0 mph32.2 kmh 29.38 in994.9 mb 0.00 in0.0 mm 0.00 in0.0 mm 0.02 in0.5 mm
05:00 AM 55.0°F12.8°C 51.5°F10.8°C 88% 12.0 mph SSE19.3 kmh SSE 21.0 mph33.8 kmh 29.38 in994.9 mb 0.00 in0.0 mm 0.00 in0.0 mm 0.02 in0.5 mm
04:45 AM 55.4°F13.0°C 52.2°F11.2°C 89% 11.0 mph S17.7 kmh S 19.0 mph30.6 kmh 29.37 in994.6 mb 0.00 in0.0 mm 0.00 in0.0 mm 0.02 in0.5 mm
04:30 AM 55.6°F13.1°C 52.4°F11.3°C 89% 11.0 mph SSE17.7 kmh SSE 21.0 mph33.8 kmh 29.37 in994.6 mb 0.00 in0.0 mm 0.00 in0.0 mm 0.02 in0.5 mm
04:15 AM 55.8°F13.2°C 52.6°F11.4°C 89% 12.0 mph SSE19.3 kmh SSE 21.0 mph33.8 kmh 29.38 in994.9 mb 0.00 in0.0 mm 0.00 in0.0 mm 0.02 in0.5 mm
04:00 AM 55.8°F13.2°C 52.6°F11.4°C 89% 13.0 mph SSE20.9 kmh SSE 24.0 mph38.6 kmh 29.38 in994.9 mb 0.00 in0.0 mm 0.00 in0.0 mm 0.02 in0.5 mm
03:45 AM 55.8°F13.2°C 52.9°F11.6°C 90% 12.0 mph SSE19.3 kmh SSE 25.0 mph40.2 kmh 29.38 in994.9 mb 0.00 in0.0 mm 0.00 in0.0 mm 0.02 in0.5 mm
03:30 AM 55.2°F12.9°C 52.6°F11.4°C 91% 10.0 mph S16.1 kmh S 19.0 mph30.6 kmh 29.39 in995.3 mb 0.01 in0.3 mm 0.00 in0.0 mm 0.02 in0.5 mm
03:15 AM 55.0°F12.8°C 52.8°F11.6°C 92% 9.0 mph SSE14.5 kmh SSE 19.0 mph30.6 kmh 29.38 in994.9 mb 0.01 in0.3 mm 0.00 in0.0 mm 0.02 in0.5 mm
03:00 AM 54.9°F12.7°C 52.6°F11.4°C 92% 8.0 mph SSE12.9 kmh SSE 15.0 mph24.1 kmh 29.40 in995.6 mb 0.01 in0.3 mm 0.00 in0.0 mm 0.02 in0.5 mm
02:45 AM 54.9°F12.7°C 52.6°F11.4°C 92% 8.0 mph SSE12.9 kmh SSE 15.0 mph24.1 kmh 29.41 in995.9 mb 0.01 in0.3 mm 0.04 in1.0 mm 0.02 in0.5 mm
02:30 AM 55.0°F12.8°C 52.5°F11.4°C 91% 6.0 mph SSE9.7 kmh SSE 12.0 mph19.3 kmh 29.41 in995.9 mb 0.00 in0.0 mm 0.00 in0.0 mm 0.01 in0.3 mm
02:15 AM 55.0°F12.8°C 52.5°F11.4°C 91% 8.0 mph SSE12.9 kmh SSE 13.0 mph20.9 kmh 29.41 in995.9 mb 0.00 in0.0 mm 0.00 in0.0 mm 0.01 in0.3 mm
02:00 AM 55.0°F12.8°C 52.8°F11.6°C 92% 9.0 mph SSE14.5 kmh SSE 20.0 mph32.2 kmh 29.43 in996.6 mb 0.00 in0.0 mm 0.00 in0.0 mm 0.01 in0.3 mm
01:45 AM 55.0°F12.8°C 52.8°F11.6°C 92% 9.0 mph SSE14.5 kmh SSE 16.0 mph25.7 kmh 29.43 in996.6 mb 0.00 in0.0 mm 0.00 in0.0 mm 0.01 in0.3 mm
01:30 AM 54.9°F12.7°C 52.6°F11.4°C 92% 7.0 mph SSE11.3 kmh SSE 14.0 mph22.5 kmh 29.43 in996.6 mb 0.00 in0.0 mm 0.00 in0.0 mm 0.01 in0.3 mm
01:15 AM 55.0°F12.8°C 52.8°F11.6°C 92% 10.0 mph SSE16.1 kmh SSE 16.0 mph25.7 kmh 29.44 in997.0 mb 0.00 in0.0 mm 0.00 in0.0 mm 0.01 in0.3 mm
01:00 AM 55.0°F12.8°C 52.8°F11.6°C 92% 9.0 mph SSE14.5 kmh SSE 16.0 mph25.7 kmh 29.45 in997.3 mb 0.00 in0.0 mm 0.00 in0.0 mm 0.01 in0.3 mm
12:45 AM 55.0°F12.8°C 52.8°F11.6°C 92% 10.0 mph SE16.1 kmh SE 22.0 mph35.4 kmh 29.44 in997.0 mb 0.00 in0.0 mm 0.00 in0.0 mm 0.01 in0.3 mm
12:30 AM 55.0°F12.8°C 52.8°F11.6°C 92% 12.0 mph SSE19.3 kmh SSE 22.0 mph35.4 kmh 29.45 in997.3 mb 0.00 in0.0 mm 0.00 in0.0 mm 0.01 in0.3 mm
12:15 AM 54.7°F12.6°C 52.1°F11.2°C 91% 12.0 mph SE19.3 kmh SE 21.0 mph33.8 kmh 29.46 in997.6 mb 0.00 in0.0 mm 0.00 in0.0 mm 0.01 in0.3 mm
12:00 AM 54.3°F12.4°C 51.7°F10.9°C 91% 11.0 mph SE17.7 kmh SE 20.0 mph32.2 kmh 29.46 in997.6 mb 0.01 in0.3 mm 0.00 in0.0 mm 0.01 in0.3 mm